createdAt,value
2019-02-11T00:00:30.903Z,79.78
2019-02-11T00:02:59.541Z,80.48
2019-02-11T00:05:28.032Z,80.61
2019-02-11T00:07:56.452Z,80.95
2019-02-11T00:10:24.961Z,81.23
2019-02-11T00:12:53.566Z,80.42
2019-02-11T00:15:21.995Z,79.63
2019-02-11T00:17:50.558Z,79.75
2019-02-11T00:20:19.182Z,79.76
2019-02-11T00:22:47.765Z,80.15
2019-02-11T00:25:16.182Z,80.21
2019-02-11T00:27:44.726Z,79.70
2019-02-11T00:30:13.228Z,80.34
2019-02-11T00:32:41.813Z,80.93
2019-02-11T00:35:10.382Z,80.93
2019-02-11T00:37:38.927Z,81.92
2019-02-11T00:40:08.777Z,82.11
2019-02-11T00:42:37.350Z,82.11
2019-02-11T00:45:07.718Z,82.13
2019-02-11T00:47:36.197Z,81.44
2019-02-11T00:50:07.728Z,81.49
2019-02-11T00:52:36.290Z,80.88
2019-02-11T00:55:05.612Z,81.28
2019-02-11T00:57:34.036Z,81.36
2019-02-11T01:00:02.536Z,81.36
2019-02-11T01:02:31.093Z,81.46
2019-02-11T01:04:59.578Z,80.79
2019-02-11T01:07:28.016Z,80.45
2019-02-11T01:09:56.564Z,80.06
2019-02-11T01:12:25.116Z,80.47
2019-02-11T01:14:53.775Z,80.47
2019-02-11T01:17:22.199Z,80.79
2019-02-11T01:19:50.713Z,80.64
2019-02-11T01:22:19.202Z,80.70
2019-02-11T01:24:47.690Z,81.04
2019-02-11T01:27:16.104Z,81.07
2019-02-11T01:29:44.590Z,80.68
2019-02-11T01:32:13.084Z,80.52
2019-02-11T01:34:41.798Z,80.53
2019-02-11T01:37:10.276Z,81.21
2019-02-11T01:39:38.686Z,81.45
2019-02-11T01:42:07.161Z,81.40
2019-02-11T01:44:35.658Z,81.23
2019-02-11T01:47:04.077Z,80.84
2019-02-11T01:49:32.642Z,80.87
2019-02-11T01:52:01.136Z,80.77
2019-02-11T01:54:29.626Z,80.78
2019-02-11T01:56:58.182Z,80.53
2019-02-11T01:59:26.741Z,80.79
2019-02-11T02:01:55.245Z,81.00
2019-02-11T02:04:23.738Z,81.00
2019-02-11T02:06:52.224Z,81.13
2019-02-11T02:09:20.704Z,81.04
2019-02-11T02:11:49.195Z,81.99
2019-02-11T02:14:17.756Z,82.23
2019-02-11T02:16:46.247Z,82.35
2019-02-11T02:19:14.679Z,81.96
2019-02-11T02:21:43.093Z,81.83
2019-02-11T02:24:11.663Z,81.74
2019-02-11T02:26:40.158Z,81.55
2019-02-11T02:29:08.584Z,81.35
2019-02-11T02:31:37.078Z,81.31
2019-02-11T02:34:05.634Z,81.31
2019-02-11T02:36:34.176Z,81.03
2019-02-11T02:39:02.601Z,81.03
2019-02-11T02:41:31.092Z,81.72
2019-02-11T02:43:59.584Z,81.65
2019-02-11T02:46:27.997Z,81.65
2019-02-11T02:48:56.415Z,81.64
2019-02-11T02:51:24.968Z,82.11
2019-02-11T02:53:53.372Z,82.03
2019-02-11T02:56:21.787Z,82.18
2019-02-11T02:58:50.286Z,82.15
2019-02-11T03:01:18.770Z,82.45
2019-02-11T03:03:47.340Z,82.17
2019-02-11T03:06:15.746Z,81.98
2019-02-11T03:08:44.333Z,82.99
2019-02-11T03:11:12.885Z,82.47
2019-02-11T03:13:41.381Z,83.02
2019-02-11T03:16:09.881Z,83.02
2019-02-11T03:18:38.443Z,83.04
2019-02-11T03:21:06.996Z,82.88
2019-02-11T03:23:35.610Z,83.46
2019-02-11T03:26:04.097Z,83.46
2019-02-11T03:28:32.606Z,83.15
2019-02-11T03:31:01.097Z,83.10
2019-02-11T03:33:29.571Z,82.32
2019-02-11T03:35:58.047Z,82.32
2019-02-11T03:38:26.610Z,82.43
2019-02-11T03:40:55.044Z,82.74
2019-02-11T03:43:23.522Z,82.60
2019-02-11T03:45:51.945Z,82.67
2019-02-11T03:48:20.422Z,82.78
2019-02-11T03:50:48.920Z,82.66
2019-02-11T03:53:17.399Z,82.78
2019-02-11T03:55:46.033Z,82.22
2019-02-11T03:58:14.590Z,82.37
2019-02-11T04:00:43.093Z,82.57
2019-02-11T04:03:11.568Z,82.67
2019-02-11T04:05:39.986Z,83.18
2019-02-11T04:08:08.575Z,82.95
2019-02-11T04:10:36.986Z,82.92
2019-02-11T04:13:05.466Z,82.88
2019-02-11T04:15:33.969Z,82.82
2019-02-11T04:18:02.464Z,83.58
2019-02-11T04:20:30.958Z,83.94
2019-02-11T04:22:59.522Z,84.09
2019-02-11T04:25:28.062Z,84.09
2019-02-11T04:27:56.493Z,84.54
2019-02-11T04:30:25.003Z,84.85
2019-02-11T04:32:53.650Z,84.85
2019-02-11T04:35:22.287Z,84.83
2019-02-11T04:37:50.963Z,84.96
2019-02-11T04:40:19.547Z,85.61
2019-02-11T04:42:48.122Z,85.61
2019-02-11T04:45:16.626Z,85.40
2019-02-11T04:47:45.068Z,85.14
2019-02-11T04:50:13.562Z,85.08
2019-02-11T04:52:42.008Z,85.37
2019-02-11T04:55:10.663Z,85.44
2019-02-11T04:57:39.168Z,84.87
2019-02-11T05:00:13.280Z,84.83
2019-02-11T05:02:41.839Z,84.64
2019-02-11T05:05:10.610Z,84.59
2019-02-11T05:07:39.244Z,84.38
2019-02-11T05:10:13.130Z,84.60
2019-02-11T05:12:41.687Z,84.75
2019-02-11T05:15:11.412Z,84.87
2019-02-11T05:17:39.993Z,84.83
2019-02-11T05:20:10.988Z,84.69
2019-02-11T05:22:39.648Z,84.92
2019-02-11T05:25:08.929Z,85.07
2019-02-11T05:27:37.595Z,85.04
2019-02-11T05:30:08.829Z,85.08
2019-02-11T05:32:37.330Z,85.07
2019-02-11T05:35:07.141Z,85.10
2019-02-11T05:37:35.646Z,85.07
2019-02-11T05:40:06.777Z,84.52
2019-02-11T05:42:35.339Z,84.70
2019-02-11T05:45:04.586Z,84.80
2019-02-11T05:47:33.220Z,84.80
2019-02-11T05:50:01.737Z,85.27
2019-02-11T05:52:30.294Z,84.94
2019-02-11T05:54:58.818Z,84.69
2019-02-11T05:57:27.293Z,83.61
2019-02-11T05:59:55.836Z,83.61
2019-02-11T06:02:24.472Z,83.43
2019-02-11T06:04:52.961Z,83.23
2019-02-11T06:07:21.405Z,83.38
2019-02-11T06:09:49.892Z,83.60
2019-02-11T06:12:18.310Z,83.60
2019-02-11T06:14:46.860Z,82.93
2019-02-11T06:17:15.480Z,82.55
2019-02-11T06:19:44.164Z,82.24
2019-02-11T06:22:12.863Z,82.24
2019-02-11T06:24:41.510Z,81.43
2019-02-11T06:27:10.108Z,81.03
2019-02-11T06:29:38.681Z,80.88
2019-02-11T06:32:07.196Z,79.59
2019-02-11T06:34:35.780Z,79.26
2019-02-11T06:37:04.270Z,78.29
2019-02-11T06:39:32.905Z,78.19
2019-02-11T06:42:01.386Z,77.81
2019-02-11T06:44:29.974Z,78.99
2019-02-11T06:46:58.535Z,79.71
2019-02-11T06:49:27.157Z,80.03
2019-02-11T06:51:55.827Z,79.90
2019-02-11T06:54:24.412Z,79.69
2019-02-11T06:56:52.960Z,79.86
2019-02-11T06:59:21.445Z,79.58
2019-02-11T07:01:50.032Z,80.09
2019-02-11T07:04:18.737Z,80.32
2019-02-11T07:06:47.193Z,80.15
2019-02-11T07:09:15.825Z,80.08
2019-02-11T07:11:44.367Z,79.53
2019-02-11T07:14:12.862Z,79.05
2019-02-11T07:16:41.445Z,78.96
2019-02-11T07:19:10.080Z,78.15
2019-02-11T07:21:38.708Z,77.17
2019-02-11T07:24:07.279Z,76.55
2019-02-11T07:26:35.793Z,76.14
2019-02-11T07:29:04.282Z,75.21
2019-02-11T07:31:32.783Z,75.63
2019-02-11T07:34:01.277Z,74.75
2019-02-11T07:36:29.850Z,73.90
2019-02-11T07:38:58.346Z,71.92
2019-02-11T07:41:28.556Z,72.68
2019-02-11T07:44:01.471Z,72.91
2019-02-11T07:46:31.681Z,72.22
2019-02-11T07:49:00.324Z,71.00
2019-02-11T07:51:28.808Z,71.49
2019-02-11T07:53:57.232Z,71.65
2019-02-11T07:56:25.805Z,70.07
2019-02-11T07:58:54.363Z,70.17
2019-02-11T08:01:22.939Z,70.27
2019-02-11T08:03:51.420Z,68.81
2019-02-11T08:06:19.985Z,69.65
2019-02-11T08:08:48.623Z,70.09
2019-02-11T08:11:17.190Z,70.18
2019-02-11T08:13:45.749Z,71.24
2019-02-11T08:16:14.333Z,70.25
2019-02-11T08:18:42.894Z,71.73
2019-02-11T08:21:11.476Z,70.74
2019-02-11T08:23:40.046Z,70.65
2019-02-11T08:26:08.608Z,71.78
2019-02-11T08:28:37.174Z,70.62
2019-02-11T08:31:06.215Z,69.75
2019-02-11T08:33:34.721Z,69.95
2019-02-11T08:36:03.310Z,69.98
2019-02-11T08:38:31.810Z,70.10
2019-02-11T08:41:01.062Z,69.58
2019-02-11T08:43:29.489Z,69.91
2019-02-11T08:45:58.036Z,69.98
2019-02-11T08:48:26.601Z,69.01
2019-02-11T08:50:55.233Z,67.83
2019-02-11T08:53:23.855Z,68.62
2019-02-11T08:55:52.878Z,68.59
2019-02-11T08:58:22.022Z,68.21
2019-02-11T09:00:51.108Z,67.86
2019-02-11T09:03:20.255Z,67.27
2019-02-11T09:05:49.498Z,65.71
2019-02-11T09:08:18.646Z,66.24
2019-02-11T09:10:47.722Z,66.11
2019-02-11T09:13:16.820Z,65.79
2019-02-11T09:15:45.823Z,65.85
2019-02-11T09:18:14.902Z,64.76
2019-02-11T09:20:44.017Z,65.83
2019-02-11T09:23:13.173Z,64.84
2019-02-11T09:25:42.316Z,65.10
2019-02-11T09:28:11.451Z,64.39
2019-02-11T09:30:40.655Z,64.93
2019-02-11T09:33:09.800Z,63.63
2019-02-11T09:35:38.876Z,62.93
2019-02-11T09:38:08.021Z,63.25
2019-02-11T09:40:37.042Z,63.32
2019-02-11T09:43:06.278Z,63.07
2019-02-11T09:45:35.429Z,63.11
2019-02-11T09:48:04.511Z,62.08
2019-02-11T09:51:01.982Z,61.94
2019-02-11T09:53:31.060Z,61.82
2019-02-11T09:56:00.136Z,60.72
2019-02-11T09:58:29.369Z,58.98
2019-02-11T10:00:58.617Z,60.81
2019-02-11T10:03:27.781Z,60.98
2019-02-11T10:05:56.865Z,60.54
2019-02-11T10:08:25.959Z,61.35
2019-02-11T10:10:55.062Z,60.69
2019-02-11T10:13:24.160Z,59.21
2019-02-11T10:15:53.264Z,59.83
2019-02-11T10:18:22.360Z,59.60
2019-02-11T10:20:51.518Z,57.71
2019-02-11T10:23:20.696Z,57.27
2019-02-11T10:25:49.823Z,58.94
2019-02-11T10:28:18.901Z,58.86
2019-02-11T10:30:48.069Z,59.21
2019-02-11T10:33:17.175Z,59.73
2019-02-11T10:35:46.341Z,58.52
2019-02-11T10:38:15.490Z,62.16
2019-02-11T10:40:44.585Z,62.83
2019-02-11T10:43:13.686Z,63.24
2019-02-11T10:45:42.811Z,64.37
2019-02-11T10:48:11.923Z,62.98
2019-02-11T10:50:41.100Z,62.43
2019-02-11T10:53:10.261Z,61.40
2019-02-11T10:55:39.443Z,62.31
2019-02-11T10:58:08.633Z,62.62
2019-02-11T11:00:37.899Z,63.10
2019-02-11T11:03:06.928Z,61.04
2019-02-11T11:05:36.023Z,59.43
2019-02-11T11:08:05.229Z,58.43
2019-02-11T11:10:58.062Z,57.29
2019-02-11T11:13:27.148Z,57.24
2019-02-11T11:15:56.330Z,55.72
2019-02-11T11:18:25.419Z,54.91
2019-02-11T11:20:54.574Z,53.25
2019-02-11T11:23:23.666Z,54.80
2019-02-11T11:25:52.827Z,53.03
2019-02-11T11:28:21.968Z,53.94
2019-02-11T11:30:51.122Z,52.42
2019-02-11T11:33:20.273Z,51.27
2019-02-11T11:35:49.409Z,52.08
2019-02-11T11:38:18.492Z,54.85
2019-02-11T11:40:47.656Z,54.66
2019-02-11T11:43:16.785Z,54.02
2019-02-11T11:45:45.874Z,55.09
2019-02-11T11:48:15.077Z,52.91
2019-02-11T11:50:44.242Z,51.99
2019-02-11T11:53:13.340Z,51.89
2019-02-11T11:55:42.468Z,51.86
2019-02-11T11:58:11.606Z,52.39
2019-02-11T12:00:40.775Z,54.30
2019-02-11T12:03:09.908Z,53.43
2019-02-11T12:05:39.126Z,54.17
2019-02-11T12:08:08.204Z,54.23
2019-02-11T12:10:37.303Z,55.20
2019-02-11T12:13:21.837Z,54.97
2019-02-11T12:15:37.457Z,55.07
2019-02-11T12:18:06.551Z,54.79
2019-02-11T12:20:35.700Z,55.50
2019-02-11T12:23:04.822Z,56.03
2019-02-11T12:25:33.871Z,55.44
2019-02-11T12:28:03.089Z,55.86
2019-02-11T12:30:32.262Z,55.98
2019-02-11T12:33:01.480Z,56.53
2019-02-11T12:35:30.705Z,57.45
2019-02-11T12:37:59.725Z,57.52
2019-02-11T12:40:28.845Z,58.28
2019-02-11T12:42:57.914Z,58.12
2019-02-11T12:45:27.128Z,57.99
2019-02-11T12:47:56.303Z,58.46
2019-02-11T12:50:25.556Z,58.68
2019-02-11T12:52:54.747Z,58.92
2019-02-11T12:55:23.822Z,58.98
2019-02-11T12:57:52.965Z,59.11
2019-02-11T13:00:25.068Z,59.18
2019-02-11T13:02:54.301Z,59.48
2019-02-11T13:05:42.598Z,59.49
2019-02-11T13:07:54.365Z,59.19
2019-02-11T13:10:23.543Z,59.93
2019-02-11T13:12:52.715Z,60.38
2019-02-11T13:15:53.138Z,60.43
2019-02-11T13:17:52.873Z,59.45
2019-02-11T13:20:22.086Z,60.73
2019-02-11T13:22:51.164Z,60.70
2019-02-11T13:25:20.305Z,59.68
2019-02-11T13:27:49.405Z,60.38
2019-02-11T13:30:20.539Z,60.31
2019-02-11T13:32:49.691Z,59.75
2019-02-11T13:35:18.942Z,59.88
2019-02-11T13:37:48.291Z,59.86
2019-02-11T13:40:17.567Z,60.34
2019-02-11T13:42:46.812Z,60.23
2019-02-11T13:45:22.053Z,60.40
2019-02-11T13:47:56.352Z,60.45
2019-02-11T13:50:24.397Z,60.43
2019-02-11T13:52:53.480Z,60.97
2019-02-11T13:55:23.066Z,61.05
2019-02-11T13:57:52.269Z,61.70
2019-02-11T14:00:49.932Z,61.95
2019-02-11T14:03:20.064Z,61.92
2019-02-11T14:05:47.537Z,61.71
2019-02-11T14:08:16.747Z,62.06
2019-02-11T14:10:45.910Z,62.03
2019-02-11T14:13:15.088Z,62.02
2019-02-11T14:15:44.267Z,62.35
2019-02-11T14:18:15.409Z,62.28
2019-02-11T14:20:44.359Z,62.23
2019-02-11T14:23:13.591Z,61.89
2019-02-11T14:25:46.645Z,62.40
2019-02-11T14:28:13.796Z,62.24
2019-02-11T14:30:43.225Z,62.10
2019-02-11T14:33:12.597Z,62.17
2019-02-11T14:35:41.779Z,62.26
2019-02-11T14:38:10.854Z,62.00
2019-02-11T14:40:40.064Z,61.95
2019-02-11T14:43:09.287Z,61.54
2019-02-11T14:45:38.449Z,62.21
2019-02-11T14:48:07.650Z,62.21
2019-02-11T14:50:36.731Z,61.41
2019-02-11T14:53:05.886Z,60.92
2019-02-11T14:55:35.020Z,61.55
2019-02-11T14:58:04.180Z,61.80
2019-02-11T15:00:33.401Z,62.33
2019-02-11T15:03:02.578Z,62.53
2019-02-11T15:05:31.580Z,63.33
2019-02-11T15:08:00.747Z,63.23
2019-02-11T15:10:29.887Z,63.55
2019-02-11T15:12:59.053Z,63.71
2019-02-11T15:15:28.206Z,63.80
2019-02-11T15:17:57.368Z,63.74
2019-02-11T15:20:26.460Z,63.74
2019-02-11T15:22:55.623Z,63.65
2019-02-11T15:25:25.283Z,63.80
2019-02-11T15:27:54.443Z,64.90
2019-02-11T15:30:23.524Z,64.82
2019-02-11T15:32:52.712Z,64.74
2019-02-11T15:35:21.945Z,64.94
2019-02-11T15:37:51.051Z,64.47
2019-02-11T15:40:24.168Z,65.38
2019-02-11T15:42:53.324Z,65.51
2019-02-11T15:45:22.414Z,66.85
2019-02-11T15:47:51.437Z,67.06
2019-02-11T15:50:20.622Z,68.01
2019-02-11T15:52:49.862Z,67.66
2019-02-11T15:55:20.302Z,67.55
2019-02-11T15:57:49.541Z,68.18
2019-02-11T16:00:22.809Z,69.03
2019-02-11T16:02:52.293Z,69.79
2019-02-11T16:05:21.543Z,70.87
2019-02-11T16:07:50.796Z,71.41
2019-02-11T16:10:22.818Z,72.51
2019-02-11T16:12:51.859Z,72.80
2019-02-11T16:15:21.012Z,73.11
2019-02-11T16:17:49.720Z,72.76
2019-02-11T16:20:18.950Z,72.21
2019-02-11T16:22:48.192Z,72.36
2019-02-11T16:25:17.383Z,72.37
2019-02-11T16:27:46.640Z,72.31
2019-02-11T16:30:21.930Z,71.96
2019-02-11T16:32:51.270Z,71.64
2019-02-11T16:35:20.448Z,72.01
2019-02-11T16:37:49.084Z,72.81
2019-02-11T16:40:23.318Z,72.78
2019-02-11T16:42:51.944Z,72.66
2019-02-11T16:45:20.430Z,72.88
2019-02-11T16:47:49.411Z,73.48
2019-02-11T16:50:17.980Z,73.62
2019-02-11T16:52:47.634Z,74.35
2019-02-11T16:55:16.287Z,74.66
2019-02-11T16:57:44.862Z,73.65
2019-02-11T17:00:18.287Z,73.99
2019-02-11T17:02:46.971Z,74.20
2019-02-11T17:05:15.614Z,74.24
2019-02-11T17:07:44.146Z,76.04
2019-02-11T17:10:14.200Z,76.75
2019-02-11T17:12:42.860Z,76.28
2019-02-11T17:15:19.127Z,75.83
2019-02-11T17:17:47.661Z,75.98
2019-02-11T17:20:18.051Z,76.19
2019-02-11T17:22:46.613Z,75.06
2019-02-11T17:25:15.503Z,75.82
2019-02-11T17:27:44.089Z,75.87
2019-02-11T17:30:21.395Z,74.87
2019-02-11T17:32:49.959Z,75.29
2019-02-11T17:35:18.539Z,74.98
2019-02-11T17:37:47.196Z,75.16
2019-02-11T17:40:15.782Z,75.98
2019-02-11T17:42:44.289Z,75.35
2019-02-11T17:45:17.095Z,75.93
2019-02-11T17:47:45.598Z,76.89
2019-02-11T17:50:15.236Z,77.19
2019-02-11T17:52:43.886Z,77.61
2019-02-11T17:55:14.057Z,77.34
2019-02-11T17:57:42.716Z,76.90
2019-02-11T18:00:31.277Z,77.06
2019-02-11T18:02:59.914Z,77.30
2019-02-11T18:05:28.582Z,77.66
2019-02-11T18:07:57.266Z,78.18
2019-02-11T18:10:25.940Z,77.11
2019-02-11T18:12:56.157Z,77.05
2019-02-11T18:15:24.776Z,76.96
2019-02-11T18:17:53.439Z,77.38
2019-02-11T18:20:22.094Z,77.19
2019-02-11T18:22:50.584Z,76.93
2019-02-11T18:25:19.243Z,76.49
2019-02-11T18:27:47.901Z,76.71
2019-02-11T18:30:16.655Z,76.76
2019-02-11T18:32:45.272Z,76.37
2019-02-11T18:35:16.077Z,77.70
2019-02-11T18:37:44.764Z,78.25
2019-02-11T18:40:14.998Z,77.66
2019-02-11T18:42:43.564Z,77.90
2019-02-11T18:45:14.289Z,78.39
2019-02-11T18:47:42.886Z,77.34
2019-02-11T18:50:13.602Z,77.12
2019-02-11T18:52:42.230Z,77.84
2019-02-11T18:55:12.656Z,76.98
2019-02-11T18:57:41.350Z,77.08
2019-02-11T19:00:37.753Z,77.60
2019-02-11T19:03:06.355Z,77.06
2019-02-11T19:05:34.963Z,76.81
2019-02-11T19:08:03.515Z,77.43
2019-02-11T19:10:32.233Z,77.81
2019-02-11T19:13:00.819Z,77.16
2019-02-11T19:15:29.474Z,77.39
2019-02-11T19:17:58.111Z,76.83
2019-02-11T19:20:26.771Z,78.68
2019-02-11T19:22:55.380Z,78.87
2019-02-11T19:25:23.968Z,78.00
2019-02-11T19:27:52.617Z,78.80
2019-02-11T19:30:25.640Z,79.07
2019-02-11T19:32:54.331Z,77.79
2019-02-11T19:35:22.911Z,78.20
2019-02-11T19:37:51.578Z,78.90
2019-02-11T19:40:20.934Z,78.53
2019-02-11T19:42:49.609Z,78.91
2019-02-11T19:45:41.924Z,79.31
2019-02-11T19:48:10.576Z,79.24
2019-02-11T19:50:39.155Z,79.93
2019-02-11T19:53:08.749Z,79.40
2019-02-11T19:55:37.993Z,79.73
2019-02-11T19:58:06.636Z,79.28
2019-02-11T20:00:35.371Z,79.46
2019-02-11T20:03:03.975Z,79.56
2019-02-11T20:05:32.579Z,79.63
2019-02-11T20:08:01.142Z,79.70
2019-02-11T20:10:29.788Z,79.76
2019-02-11T20:12:58.443Z,80.37
2019-02-11T20:15:31.779Z,79.21
2019-02-11T20:18:00.424Z,78.70
2019-02-11T20:20:28.985Z,80.00
2019-02-11T20:22:57.625Z,80.65
2019-02-11T20:25:26.265Z,80.64
2019-02-11T20:27:55.441Z,81.36
2019-02-11T20:30:28.863Z,81.38
2019-02-11T20:32:57.447Z,81.20
2019-02-11T20:35:26.101Z,81.54
2019-02-11T20:37:54.662Z,81.51
2019-02-11T20:40:26.063Z,81.47
2019-02-11T20:42:54.627Z,81.20
2019-02-11T20:45:47.073Z,81.61
2019-02-11T20:48:15.654Z,82.67
2019-02-11T20:50:44.298Z,82.39
2019-02-11T20:53:12.937Z,82.55
2019-02-11T20:55:42.599Z,82.81
2019-02-11T20:58:11.086Z,82.87
2019-02-11T21:00:39.726Z,83.02
2019-02-11T21:03:08.762Z,82.22
2019-02-11T21:05:37.516Z,82.17
2019-02-11T21:08:06.011Z,80.90
2019-02-11T21:10:34.582Z,80.88
2019-02-11T21:13:03.231Z,81.32
2019-02-11T21:15:31.810Z,81.48
2019-02-11T21:18:00.378Z,80.92
2019-02-11T21:20:37.751Z,81.53
2019-02-11T21:23:07.977Z,80.91
2019-02-11T21:25:36.558Z,81.34
2019-02-11T21:28:05.144Z,81.84
2019-02-11T21:30:33.770Z,82.24
2019-02-11T21:33:02.396Z,82.82
2019-02-11T21:35:31.010Z,82.54
2019-02-11T21:37:59.514Z,81.69
2019-02-11T21:40:27.938Z,81.27
2019-02-11T21:42:56.444Z,81.91
2019-02-11T21:45:25.064Z,81.07
2019-02-11T21:47:53.635Z,80.97
2019-02-11T21:50:26.628Z,80.97
2019-02-11T21:52:52.352Z,80.83
2019-02-11T21:55:22.991Z,80.73
2019-02-11T21:57:51.535Z,79.78
2019-02-11T22:00:22.252Z,79.96
2019-02-11T22:02:50.913Z,79.95
2019-02-11T22:05:19.492Z,80.83
2019-02-11T22:07:47.990Z,79.98
2019-02-11T22:10:23.382Z,80.32
2019-02-11T22:12:52.027Z,80.68
2019-02-11T22:15:20.525Z,80.74
2019-02-11T22:17:50.686Z,81.99
2019-02-11T22:20:20.591Z,81.78
2019-02-11T22:22:49.177Z,81.51
2019-02-11T22:25:17.750Z,81.76
2019-02-11T22:27:46.307Z,83.02
2019-02-11T22:30:16.982Z,83.46
2019-02-11T22:32:45.562Z,82.80
2019-02-11T22:35:14.043Z,82.71
2019-02-11T22:37:42.682Z,82.86
2019-02-11T22:40:15.084Z,81.93
2019-02-11T22:42:43.645Z,82.03
2019-02-11T22:45:41.340Z,82.69
2019-02-11T22:48:09.995Z,82.36
2019-02-11T22:50:43.228Z,82.55
2019-02-11T22:53:08.983Z,82.06
2019-02-11T22:55:37.617Z,81.80
2019-02-11T22:58:06.085Z,82.10
2019-02-11T23:00:46.428Z,82.99
2019-02-11T23:03:15.072Z,83.26
2019-02-11T23:05:43.777Z,82.94
2019-02-11T23:08:12.469Z,82.67
2019-02-11T23:10:40.977Z,83.38
2019-02-11T23:13:09.594Z,83.56
2019-02-11T23:15:38.103Z,83.07
2019-02-11T23:18:06.657Z,83.04
2019-02-11T23:20:35.172Z,83.23
2019-02-11T23:23:03.671Z,83.65
2019-02-11T23:25:32.243Z,83.14
2019-02-11T23:28:01.303Z,83.15
2019-02-11T23:30:29.901Z,83.22
2019-02-11T23:32:58.469Z,83.33
2019-02-11T23:35:27.036Z,83.11
2019-02-11T23:37:55.465Z,82.96
2019-02-11T23:40:23.892Z,82.64
2019-02-11T23:42:52.453Z,82.50
2019-02-11T23:45:21.018Z,82.07
2019-02-11T23:47:49.593Z,81.75
2019-02-11T23:50:18.150Z,81.56
2019-02-11T23:52:46.633Z,81.26
2019-02-11T23:55:15.186Z,81.43
2019-02-11T23:57:43.667Z,81.52
